North Somercotes, United Kingdom
Current Conditions -  °F | °C
As of 12:50 AM on Saturday 25 Oct 2014 (Local Time) from EGXS Reporting Station
Clear Clear  
Wind Chill: 41°   Ceiling: Unl
Heat Index: 46°   Visibility: 6mi
Dew Point: 45°   Wind: 12mph
Humidity: 93%   Direction: 210°SSW
Pressure: 29.91"   Gusts: NA
Location:  53.45°N, 0.14°E
Report Text: EGXS 242350Z AUTO 21010KT 9999 // NCD 08/07 Q1013
Loading
Personal Weather Stations






























Interactive Weather Map
Tropical Storm Tracking
New forecast layout! Learn more

10-Day Weather Forecast

Advertisements
Track Severe Weather on mobile